Ak-Bajtal, Uzbekistan
Current Conditions -  °F | °C
As of 11:00 PM on Sunday 21 Dec 2014 (Local Time) from UAOO Reporting Station
Haze Haze  
Wind Chill: 19°   Ceiling: 10000
Heat Index: 25°   Visibility: 3mi
Dew Point: 23°   Wind: 4mph
Humidity: 93%   Direction: 240°WSW
Pressure: 30.09"   Gusts: NA
Location:  43.15°N, 64.33°E
Report Text: UAOO 211800Z 24002MPS 5000 BR BKN100 M04/M05 Q1019 NOSIG RMKQFE752/1003
Loading
Personal Weather Stations






























Interactive Weather Map New forecast layout! Learn more

10-Day Weather Forecast

Advertisements
Track Severe Weather on mobile